createdAt,value
2022-08-09T00:00:29.578Z,98062.94
2022-08-09T00:02:57.471Z,98058.41
2022-08-09T00:06:17.601Z,98066.19
2022-08-09T00:08:31.396Z,98065.94
2022-08-09T00:11:00.979Z,98069.59
2022-08-09T00:13:33.460Z,98071.53
2022-08-09T00:16:05.845Z,98064.94
2022-08-09T00:18:35.712Z,98068.22
2022-08-09T00:21:08.928Z,98074.88
2022-08-09T00:23:54.901Z,98070.84
2022-08-09T00:26:29.861Z,98071.81
2022-08-09T00:29:02.580Z,98073.13
2022-08-09T00:31:59.808Z,98067.00
2022-08-09T00:34:19.824Z,98081.13
2022-08-09T00:36:48.806Z,98072.56
2022-08-09T00:40:14.130Z,98076.25
2022-08-09T00:44:15.599Z,98080.50
2022-08-09T00:44:53.783Z,98077.72
2022-08-09T00:47:25.378Z,98088.56
2022-08-09T00:49:54.903Z,98085.81
2022-08-09T00:52:30.665Z,98085.81
2022-08-09T00:55:00.967Z,98087.63
2022-08-09T00:57:34.218Z,98099.06
2022-08-09T01:00:21.461Z,98084.41
2022-08-09T01:03:16.531Z,98087.34
2022-08-09T01:06:13.942Z,98086.03
2022-08-09T01:09:06.211Z,98093.03
2022-08-09T01:12:01.266Z,98099.16
2022-08-09T01:14:34.534Z,98095.16
2022-08-09T01:17:11.691Z,98088.47
2022-08-09T01:20:03.362Z,98101.53
2022-08-09T01:24:02.558Z,98096.50
2022-08-09T01:26:16.859Z,98096.00
2022-08-09T01:28:47.787Z,98097.16
2022-08-09T01:32:31.831Z,98098.22
2022-08-09T01:34:10.709Z,98099.56
2022-08-09T01:36:41.133Z,98101.41
2022-08-09T01:39:09.009Z,98100.84
2022-08-09T01:41:53.661Z,98102.69
2022-08-09T01:44:25.464Z,98095.47
2022-08-09T01:46:53.796Z,98102.38
2022-08-09T01:49:24.130Z,98106.84
2022-08-09T01:51:57.380Z,98103.41
2022-08-09T01:54:40.944Z,98097.00
2022-08-09T01:57:15.013Z,98091.69
2022-08-09T01:59:51.839Z,98095.66
2022-08-09T02:02:30.954Z,98097.50
2022-08-09T02:05:11.817Z,98098.09
2022-08-09T02:08:41.053Z,98098.91
2022-08-09T02:10:52.120Z,98096.50
2022-08-09T02:13:26.139Z,98096.28
2022-08-09T02:16:07.475Z,98098.16
2022-08-09T02:18:43.010Z,98088.03
2022-08-09T02:21:22.172Z,98095.16
2022-08-09T02:23:57.758Z,98093.25
2022-08-09T02:26:30.258Z,98098.34
2022-08-09T02:29:03.610Z,98100.47
2022-08-09T02:31:38.908Z,98100.97
2022-08-09T02:34:25.770Z,98102.28
2022-08-09T02:37:09.544Z,98091.91
2022-08-09T02:39:55.182Z,98100.16
2022-08-09T02:42:37.084Z,98108.44
2022-08-09T02:45:10.748Z,98106.28
2022-08-09T02:47:57.513Z,98114.78
2022-08-09T02:50:39.803Z,98110.75
2022-08-09T02:53:26.248Z,98112.34
2022-08-09T02:56:00.173Z,98113.66
2022-08-09T02:58:37.502Z,98108.88
2022-08-09T03:01:10.909Z,98107.28
2022-08-09T03:04:17.628Z,98104.34
2022-08-09T03:06:32.853Z,98113.88
2022-08-09T03:09:01.795Z,98116.03
2022-08-09T03:12:06.054Z,98118.13
2022-08-09T03:14:21.847Z,98114.47
2022-08-09T03:16:58.232Z,98113.69
2022-08-09T03:19:57.933Z,98120.38
2022-08-09T03:22:25.179Z,98114.47
2022-08-09T03:25:06.324Z,98117.66
2022-08-09T03:27:51.817Z,98125.59
2022-08-09T03:30:29.207Z,98115.47
2022-08-09T03:33:12.943Z,98114.44
2022-08-09T03:36:12.282Z,98113.38
2022-08-09T03:38:37.270Z,98116.28
2022-08-09T03:41:15.685Z,98116.03
2022-08-09T03:44:03.005Z,98109.09
2022-08-09T03:46:33.985Z,98108.88
2022-08-09T03:49:08.174Z,98101.13
2022-08-09T03:51:59.100Z,98115.75
2022-08-09T03:54:38.402Z,98114.66
2022-08-09T03:57:12.421Z,98108.81
2022-08-09T03:59:54.478Z,98097.06
2022-08-09T04:02:26.681Z,98104.31
2022-08-09T04:05:06.562Z,98106.47
2022-08-09T04:07:56.386Z,98102.41
2022-08-09T04:10:29.224Z,98108.50
2022-08-09T04:13:03.920Z,98104.31
2022-08-09T04:15:52.058Z,98109.34
2022-08-09T04:18:21.463Z,98113.31
2022-08-09T04:20:51.259Z,98113.31
2022-08-09T04:23:23.281Z,98113.31
2022-08-09T04:25:54.571Z,98112.19
2022-08-09T04:28:34.079Z,98112.72
2022-08-09T04:31:09.402Z,98116.63
2022-08-09T04:33:47.733Z,98111.63
2022-08-09T04:36:24.106Z,98115.78
2022-08-09T04:38:52.566Z,98118.94
2022-08-09T04:41:23.871Z,98124.56
2022-08-09T04:44:06.664Z,98128.94
2022-08-09T04:46:58.257Z,98129.28
2022-08-09T04:49:40.163Z,98134.28
2022-08-09T04:52:18.670Z,98129.19
2022-08-09T04:54:53.436Z,98137.13
2022-08-09T04:57:24.443Z,98143.13
2022-08-09T04:59:56.269Z,98142.88
2022-08-09T05:02:27.227Z,98137.13
2022-08-09T05:04:58.335Z,98138.72
2022-08-09T05:07:37.135Z,98149.00
2022-08-09T05:10:05.669Z,98146.72
2022-08-09T05:12:33.479Z,98146.25
2022-08-09T05:15:01.369Z,98146.84
2022-08-09T05:18:42.622Z,98147.31
2022-08-09T05:20:18.539Z,98145.97
2022-08-09T05:23:59.551Z,98146.16
2022-08-09T05:25:33.690Z,98153.41
2022-08-09T05:28:03.076Z,98159.25
2022-08-09T05:30:31.218Z,98160.47
2022-08-09T05:32:59.459Z,98163.69
2022-08-09T05:35:27.090Z,98157.97
2022-08-09T05:37:57.145Z,98155.16
2022-08-09T05:40:31.734Z,98161.72
2022-08-09T05:42:59.188Z,98168.19
2022-08-09T05:45:26.481Z,98167.78
2022-08-09T05:48:14.130Z,98172.03
2022-08-09T05:50:51.003Z,98175.84
2022-08-09T05:53:33.199Z,98179.72
2022-08-09T05:56:01.502Z,98174.31
2022-08-09T05:58:29.081Z,98182.78
2022-08-09T06:00:56.429Z,98184.03
2022-08-09T06:03:25.676Z,98183.97
2022-08-09T06:06:05.906Z,98190.00
2022-08-09T06:08:33.941Z,98190.06
2022-08-09T06:11:01.390Z,98192.75
2022-08-09T06:13:44.943Z,98190.09
2022-08-09T06:16:15.231Z,98196.19
2022-08-09T06:18:43.789Z,98192.34
2022-08-09T06:21:11.266Z,98184.03
2022-08-09T06:23:58.084Z,98190.66
2022-08-09T06:26:28.467Z,98191.81
2022-08-09T06:29:00.546Z,98198.28
2022-08-09T06:31:39.975Z,98204.75
2022-08-09T06:34:26.103Z,98202.78
2022-08-09T06:36:59.200Z,98206.03
2022-08-09T06:39:48.095Z,98201.28
2022-08-09T06:42:24.794Z,98196.41
2022-08-09T06:45:00.191Z,98184.22
2022-08-09T06:47:41.732Z,98196.09
2022-08-09T06:50:14.574Z,98204.13
2022-08-09T06:52:48.597Z,98197.53
2022-08-09T06:55:23.315Z,98200.69
2022-08-09T06:58:03.542Z,98200.66
2022-08-09T07:00:52.679Z,98197.56
2022-08-09T07:03:27.637Z,98196.00
2022-08-09T07:06:04.555Z,98195.63
2022-08-09T07:08:37.130Z,98199.53
2022-08-09T07:11:06.526Z,98196.78
2022-08-09T07:14:04.358Z,98203.78
2022-08-09T07:16:41.821Z,98198.69
2022-08-09T07:19:15.654Z,98203.03
2022-08-09T07:21:55.640Z,98203.03
2022-08-09T07:24:32.860Z,98205.34
2022-08-09T07:27:27.360Z,98200.09
2022-08-09T07:30:00.278Z,98205.97
2022-08-09T07:32:32.083Z,98203.81
2022-08-09T07:35:10.701Z,98207.28
2022-08-09T07:37:45.317Z,98205.38
2022-08-09T07:40:17.468Z,98208.28
2022-08-09T07:42:59.109Z,98211.59
2022-08-09T07:45:37.301Z,98211.03
2022-08-09T07:48:06.229Z,98197.97
2022-08-09T07:50:36.467Z,98200.69
2022-08-09T07:53:05.341Z,98197.84
2022-08-09T07:55:41.651Z,98212.00
2022-08-09T07:58:26.221Z,98198.75
2022-08-09T08:00:56.078Z,98203.41
2022-08-09T08:03:36.781Z,98209.16
2022-08-09T08:06:05.096Z,98209.16
2022-08-09T08:09:01.275Z,98210.13
2022-08-09T08:12:10.306Z,98213.06
2022-08-09T08:14:07.922Z,98209.47
2022-08-09T08:16:36.497Z,98212.66
2022-08-09T08:19:07.001Z,98211.34
2022-08-09T08:21:39.430Z,98205.00
2022-08-09T08:24:11.851Z,98212.75
2022-08-09T08:26:55.821Z,98224.38
2022-08-09T08:29:28.020Z,98220.72
2022-08-09T08:32:02.387Z,98218.72
2022-08-09T08:34:34.517Z,98233.59
2022-08-09T08:37:03.946Z,98233.44
2022-08-09T08:39:38.177Z,98231.78
2022-08-09T08:42:11.355Z,98229.38
2022-08-09T08:44:39.487Z,98230.50
2022-08-09T08:47:12.826Z,98223.75
2022-08-09T08:49:47.989Z,98225.19
2022-08-09T08:52:52.756Z,98222.69
2022-08-09T08:55:07.946Z,98226.69
2022-08-09T08:57:37.132Z,98224.78
2022-08-09T09:00:20.367Z,98226.31
2022-08-09T09:02:52.481Z,98230.44
2022-08-09T09:05:32.966Z,98232.69
2022-08-09T09:08:04.215Z,98238.38
2022-08-09T09:10:33.145Z,98227.06
2022-08-09T09:13:00.624Z,98231.94
2022-08-09T09:15:38.677Z,98228.69
2022-08-09T09:18:08.009Z,98225.66
2022-08-09T09:20:36.745Z,98227.63
2022-08-09T09:23:04.056Z,98221.75
2022-08-09T09:26:04.631Z,98235.22
2022-08-09T09:29:01.856Z,98245.44
2022-08-09T09:31:17.233Z,98235.03
2022-08-09T09:34:18.472Z,98226.31
2022-08-09T09:36:53.281Z,98231.16
2022-08-09T09:39:42.866Z,98239.63
2022-08-09T09:42:27.803Z,98243.03
2022-08-09T09:45:08.553Z,98240.28
2022-08-09T09:47:47.921Z,98251.09
2022-08-09T09:50:50.725Z,98234.34
2022-08-09T09:53:58.338Z,98235.84
2022-08-09T09:56:20.125Z,98234.22
2022-08-09T09:58:58.699Z,98234.16
2022-08-09T10:01:31.035Z,98220.84
2022-08-09T10:04:30.963Z,98236.31
2022-08-09T10:07:03.463Z,98232.84
2022-08-09T10:09:55.622Z,98229.81
2022-08-09T10:12:28.530Z,98230.34
2022-08-09T10:15:51.035Z,98224.50
2022-08-09T10:18:12.783Z,98227.81
2022-08-09T10:20:44.645Z,98225.34
2022-08-09T10:23:21.976Z,98230.69
2022-08-09T10:26:07.713Z,98222.91
2022-08-09T10:28:40.707Z,98224.47
2022-08-09T10:34:07.802Z,98221.13
2022-08-09T10:36:42.210Z,98206.53
2022-08-09T10:39:15.423Z,98210.00
2022-08-09T10:41:43.603Z,98220.03
2022-08-09T10:44:11.313Z,98215.44
2022-08-09T10:48:20.280Z,98222.47
2022-08-09T10:51:15.095Z,98215.03
2022-08-09T10:54:12.151Z,98208.16
2022-08-09T10:56:43.872Z,98205.28
2022-08-09T10:59:23.540Z,98210.81
2022-08-09T11:03:13.673Z,98200.09
2022-08-09T11:05:25.258Z,98203.63
2022-08-09T11:07:59.353Z,98200.81
2022-08-09T11:10:46.973Z,98188.50
2022-08-09T11:13:50.104Z,98189.06
2022-08-09T11:16:34.799Z,98188.66
2022-08-09T11:19:09.716Z,98189.06
2022-08-09T11:22:10.249Z,98185.38
2022-08-09T11:24:58.451Z,98174.09
2022-08-09T11:28:03.534Z,98179.13
2022-08-09T11:30:37.954Z,98181.56
2022-08-09T11:33:38.149Z,98173.41
2022-08-09T11:36:06.727Z,98178.13
2022-08-09T11:38:41.344Z,98170.59
2022-08-09T11:41:13.356Z,98177.56
2022-08-09T11:43:49.332Z,98171.34
2022-08-09T11:46:33.047Z,98172.75
2022-08-09T11:49:05.168Z,98178.03
2022-08-09T11:53:03.627Z,98170.00
2022-08-09T11:55:51.948Z,98164.75
2022-08-09T11:58:19.659Z,98174.53
2022-08-09T12:01:37.349Z,98176.75
2022-08-09T12:04:01.846Z,98167.13
2022-08-09T12:06:32.894Z,98174.25
2022-08-09T12:09:19.706Z,98176.91
2022-08-09T12:12:04.066Z,98166.78
2022-08-09T12:14:36.997Z,98170.47
2022-08-09T12:17:27.697Z,98165.34
2022-08-09T12:20:19.841Z,98154.97
2022-08-09T12:22:52.933Z,98174.19
2022-08-09T12:25:36.492Z,98168.50
2022-08-09T12:28:58.725Z,98154.38
2022-08-09T12:31:31.259Z,98150.81
2022-08-09T12:34:14.542Z,98159.06
2022-08-09T12:36:58.679Z,98160.47
2022-08-09T12:39:38.243Z,98153.34
2022-08-09T12:42:16.870Z,98158.63
2022-08-09T12:44:51.899Z,98152.25
2022-08-09T12:47:22.705Z,98160.59
2022-08-09T12:50:09.592Z,98152.25
2022-08-09T12:52:58.322Z,98144.34
2022-08-09T12:56:13.965Z,98156.28
2022-08-09T12:58:24.386Z,98152.34
2022-08-09T13:00:56.348Z,98142.44
2022-08-09T13:03:53.123Z,98146.16
2022-08-09T13:06:47.446Z,98141.41
2022-08-09T13:09:31.753Z,98134.41
2022-08-09T13:12:07.579Z,98135.59
2022-08-09T13:14:43.664Z,98129.06
2022-08-09T13:17:44.368Z,98130.53
2022-08-09T13:20:13.939Z,98132.72
2022-08-09T13:23:00.522Z,98128.81
2022-08-09T13:25:55.003Z,98133.34
2022-08-09T13:28:34.627Z,98135.63
2022-08-09T13:32:13.878Z,98134.72
2022-08-09T13:33:58.020Z,98130.88
2022-08-09T13:36:41.321Z,98126.91
2022-08-09T13:41:54.160Z,98130.72
2022-08-09T13:42:04.829Z,98132.13
2022-08-09T13:44:33.568Z,98137.94
2022-08-09T13:47:26.520Z,98124.50
2022-08-09T13:49:56.158Z,98125.03
2022-08-09T13:52:24.554Z,98137.09
2022-08-09T13:55:00.179Z,98134.78
2022-08-09T13:57:39.337Z,98122.00
2022-08-09T14:00:17.867Z,98128.03
2022-08-09T14:03:03.578Z,98133.13
2022-08-09T14:05:59.363Z,98127.53
2022-08-09T14:08:26.910Z,98134.72
2022-08-09T14:10:56.426Z,98140.50
2022-08-09T14:14:16.036Z,98129.13
2022-08-09T14:16:28.050Z,98123.75
2022-08-09T14:18:57.152Z,98131.84
2022-08-09T14:21:29.664Z,98127.44
2022-08-09T14:24:05.682Z,98130.88
2022-08-09T14:26:38.364Z,98131.06
2022-08-09T14:30:15.156Z,98140.31
2022-08-09T14:31:57.741Z,98139.91
2022-08-09T14:34:31.685Z,98129.00
2022-08-09T14:37:08.189Z,98128.53
2022-08-09T14:39:47.094Z,98129.28
2022-08-09T14:42:29.120Z,98131.19
2022-08-09T14:46:39.171Z,98133.41
2022-08-09T14:48:02.071Z,98133.19
2022-08-09T14:50:33.129Z,98134.91
2022-08-09T14:53:11.748Z,98134.47
2022-08-09T14:55:47.799Z,98133.50
2022-08-09T14:58:18.453Z,98134.34
2022-08-09T15:00:48.199Z,98136.66
2022-08-09T15:03:20.451Z,98132.59
2022-08-09T15:05:52.588Z,98143.03
2022-08-09T15:08:24.386Z,98126.97
2022-08-09T15:11:00.721Z,98138.00
2022-08-09T15:13:29.908Z,98134.38
2022-08-09T15:16:16.338Z,98138.38
2022-08-09T15:18:43.935Z,98127.31
2022-08-09T15:22:01.072Z,98133.72
2022-08-09T15:24:11.384Z,98130.09
2022-08-09T15:26:46.248Z,98140.28
2022-08-09T15:30:57.719Z,98133.22
2022-08-09T15:32:02.733Z,98141.69
2022-08-09T15:34:34.144Z,98137.66
2022-08-09T15:37:23.662Z,98143.09
2022-08-09T15:39:53.608Z,98139.16
2022-08-09T15:42:23.315Z,98140.50
2022-08-09T15:44:51.610Z,98137.59
2022-08-09T15:47:22.780Z,98140.84
2022-08-09T15:50:05.366Z,98138.47
2022-08-09T15:52:35.911Z,98142.06
2022-08-09T15:55:12.633Z,98144.44
2022-08-09T15:57:44.227Z,98135.88
2022-08-09T16:00:26.209Z,98135.53
2022-08-09T16:02:56.790Z,98132.25
2022-08-09T16:05:47.173Z,98128.16
2022-08-09T16:08:30.707Z,98128.44
2022-08-09T16:11:01.598Z,98131.34
2022-08-09T16:14:03.718Z,98124.78
2022-08-09T16:16:26.063Z,98126.69
2022-08-09T16:18:56.143Z,98129.59
2022-08-09T16:21:25.489Z,98123.41
2022-08-09T16:23:58.671Z,98126.16
2022-08-09T16:26:34.921Z,98132.13
2022-08-09T16:29:11.632Z,98131.41
2022-08-09T16:32:20.235Z,98139.97
2022-08-09T16:34:53.421Z,98139.38
2022-08-09T16:37:56.047Z,98135.09
2022-08-09T16:40:29.972Z,98137.88
2022-08-09T16:43:02.293Z,98144.34
2022-08-09T16:45:30.350Z,98136.63
2022-08-09T16:48:40.998Z,98139.97
2022-08-09T16:50:49.771Z,98136.53
2022-08-09T16:53:32.613Z,98139.69
2022-08-09T16:56:07.645Z,98137.69
2022-08-09T16:58:49.804Z,98149.59
2022-08-09T17:01:23.417Z,98143.78
2022-08-09T17:03:51.212Z,98147.94
2022-08-09T17:06:31.414Z,98142.63
2022-08-09T17:09:17.766Z,98154.78
2022-08-09T17:11:52.813Z,98154.81
2022-08-09T17:14:28.090Z,98152.19
2022-08-09T17:17:03.300Z,98154.88
2022-08-09T17:19:47.687Z,98152.84
2022-08-09T17:22:31.196Z,98148.91
2022-08-09T17:25:11.546Z,98153.69
2022-08-09T17:27:49.158Z,98157.81
2022-08-09T17:30:25.955Z,98161.13
2022-08-09T17:32:57.464Z,98162.25
2022-08-09T17:35:29.085Z,98153.09
2022-08-09T17:38:12.906Z,98156.53
2022-08-09T17:40:42.217Z,98159.09
2022-08-09T17:43:34.044Z,98158.31
2022-08-09T17:46:09.753Z,98167.16
2022-08-09T17:48:51.532Z,98168.59
2022-08-09T17:51:20.839Z,98173.00
2022-08-09T17:53:55.342Z,98170.00
2022-08-09T17:56:35.354Z,98171.44
2022-08-09T17:59:11.494Z,98171.84
2022-08-09T18:02:07.704Z,98179.06
2022-08-09T18:04:28.377Z,98182.66
2022-08-09T18:06:56.881Z,98176.75
2022-08-09T18:09:40.036Z,98174.97
2022-08-09T18:12:17.974Z,98177.47
2022-08-09T18:14:54.582Z,98172.41
2022-08-09T18:17:27.420Z,98181.13
2022-08-09T18:20:54.130Z,98182.41
2022-08-09T18:23:04.960Z,98187.41
2022-08-09T18:25:45.493Z,98189.88
2022-08-09T18:30:41.834Z,98201.03
2022-08-09T18:31:08.961Z,98202.91
2022-08-09T18:33:36.579Z,98204.06
2022-08-09T18:36:14.189Z,98211.44
2022-08-09T18:38:42.058Z,98212.63
2022-08-09T18:41:09.587Z,98212.75
2022-08-09T18:43:37.061Z,98219.75
2022-08-09T18:46:51.471Z,98212.44
2022-08-09T18:49:07.911Z,98219.38
2022-08-09T18:51:38.833Z,98224.53
2022-08-09T18:54:28.470Z,98223.59
2022-08-09T18:57:05.455Z,98222.47
2022-08-09T18:59:48.779Z,98227.81
2022-08-09T19:02:20.053Z,98224.94
2022-08-09T19:05:03.906Z,98228.28
2022-08-09T19:07:36.162Z,98230.97
2022-08-09T19:10:15.600Z,98228.97
2022-08-09T19:12:51.386Z,98234.72
2022-08-09T19:15:24.654Z,98226.06
2022-08-09T19:17:54.985Z,98234.50
2022-08-09T19:20:24.765Z,98233.84
2022-08-09T19:22:54.695Z,98239.00
2022-08-09T19:25:41.356Z,98238.63
2022-08-09T19:28:13.099Z,98237.97
2022-08-09T19:30:44.646Z,98239.13
2022-08-09T19:33:19.579Z,98238.03
2022-08-09T19:35:58.385Z,98238.19
2022-08-09T19:38:27.709Z,98242.72
2022-08-09T19:40:59.949Z,98241.63
2022-08-09T19:44:02.206Z,98245.97
2022-08-09T19:46:35.785Z,98242.38
2022-08-09T19:50:08.711Z,98243.38
2022-08-09T19:51:55.936Z,98238.75
2022-08-09T19:54:25.776Z,98245.28
2022-08-09T19:56:55.069Z,98247.34
2022-08-09T19:59:57.327Z,98245.13
2022-08-09T20:03:23.997Z,98250.50
2022-08-09T20:05:00.393Z,98250.97
2022-08-09T20:07:33.850Z,98253.16
2022-08-09T20:10:17.857Z,98243.38
2022-08-09T20:12:50.018Z,98253.47
2022-08-09T20:16:34.642Z,98254.66
2022-08-09T20:18:08.273Z,98253.97
2022-08-09T20:20:37.767Z,98256.03
2022-08-09T20:23:06.904Z,98261.50
2022-08-09T20:25:38.274Z,98253.16
2022-08-09T20:28:28.176Z,98254.06
2022-08-09T20:31:04.935Z,98257.13
2022-08-09T20:33:38.940Z,98253.38
2022-08-09T20:36:11.979Z,98258.03
2022-08-09T20:41:35.145Z,98257.81
2022-08-09T20:44:10.414Z,98258.28
2022-08-09T20:46:43.082Z,98259.63
2022-08-09T20:49:15.775Z,98262.19
2022-08-09T20:51:45.267Z,98258.59
2022-08-09T20:54:19.003Z,98260.44
2022-08-09T20:56:49.692Z,98267.88
2022-08-09T20:59:50.037Z,98267.41
2022-08-09T21:02:18.607Z,98271.91
2022-08-09T21:05:51.340Z,98263.94
2022-08-09T21:07:40.355Z,98262.25
2022-08-09T21:10:12.084Z,98263.13
2022-08-09T21:12:40.016Z,98265.00
2022-08-09T21:15:12.599Z,98269.44
2022-08-09T21:18:21.018Z,98269.34
2022-08-09T21:20:33.128Z,98275.34
2022-08-09T21:23:03.672Z,98272.47
2022-08-09T21:25:56.212Z,98273.25
2022-08-09T21:28:35.212Z,98274.31
2022-08-09T21:31:17.697Z,98271.31
2022-08-09T21:33:51.489Z,98273.81
2022-08-09T21:36:22.964Z,98277.88
2022-08-09T21:38:57.523Z,98278.00
2022-08-09T21:42:04.631Z,98284.72
2022-08-09T21:44:34.138Z,98276.50
2022-08-09T21:47:08.652Z,98272.44
2022-08-09T21:49:42.566Z,98271.59
2022-08-09T21:52:14.986Z,98269.69
2022-08-09T21:54:50.581Z,98271.16
2022-08-09T21:57:39.585Z,98265.97
2022-08-09T22:00:33.326Z,98265.00
2022-08-09T22:03:07.551Z,98262.47
2022-08-09T22:05:42.245Z,98264.03
2022-08-09T22:08:16.387Z,98264.56
2022-08-09T22:11:49.671Z,98255.97
2022-08-09T22:13:35.468Z,98256.63
2022-08-09T22:16:07.543Z,98257.53
2022-08-09T22:18:53.758Z,98256.97
2022-08-09T22:21:44.715Z,98261.31
2022-08-09T22:24:17.147Z,98260.78
2022-08-09T22:26:51.863Z,98258.94
2022-08-09T22:29:28.924Z,98257.41
2022-08-09T22:32:02.061Z,98258.81
2022-08-09T22:34:29.969Z,98262.81
2022-08-09T22:36:59.344Z,98255.94
2022-08-09T22:39:55.448Z,98255.44
2022-08-09T22:42:22.581Z,98253.84
2022-08-09T22:48:04.610Z,98261.31
2022-08-09T22:48:14.264Z,98255.25
2022-08-09T22:50:31.045Z,98257.09
2022-08-09T22:53:03.966Z,98260.06
2022-08-09T22:56:06.264Z,98256.06
2022-08-09T22:58:20.335Z,98252.88
2022-08-09T23:01:02.286Z,98256.88
2022-08-09T23:04:04.064Z,98258.44
2022-08-09T23:06:29.982Z,98267.78
2022-08-09T23:09:06.704Z,98258.50
2022-08-09T23:11:34.430Z,98258.00
2022-08-09T23:14:03.398Z,98258.53
2022-08-09T23:16:31.657Z,98258.28
2022-08-09T23:18:59.468Z,98266.22
2022-08-09T23:21:32.796Z,98264.38
2022-08-09T23:24:06.479Z,98267.03
2022-08-09T23:26:39.069Z,98260.66
2022-08-09T23:29:10.033Z,98255.34
2022-08-09T23:31:37.966Z,98265.22
2022-08-09T23:34:05.379Z,98259.91
2022-08-09T23:36:35.021Z,98261.22
2022-08-09T23:39:05.039Z,98260.16
2022-08-09T23:41:32.553Z,98264.44
2022-08-09T23:44:02.240Z,98260.97
2022-08-09T23:46:31.092Z,98250.06
2022-08-09T23:48:59.314Z,98249.78
2022-08-09T23:51:28.024Z,98254.81
2022-08-09T23:54:00.701Z,98256.97
2022-08-09T23:56:52.508Z,98250.31
2022-08-09T23:59:22.176Z,98254.81
